Spirit of St Louis Airport
KSUS : now visible

Airfield :











YOU CAN JOIN US ON...

 
LOGIN :

Register | Disclaimer

   EN    FR    IT 

 









Legend :    VFR   Marginal VFR   IFR   Intensive IFR   Very Intensive IFR
Visi :
Ceiling :
>= 8 km
>= 3000ft
5 to 8 km
1000 to 3000 ft
1500m to 5 km
500 to 1000 ft
800 to 1500m
200 to 500 ft
< 800m
< 200 ft
Symbols :   Thunderstorms  Fog  Heavy snow  Heavy precipitations  Wind > 20 kt






- Airport Elevation : 463 ft


KSUS - Spirit of St Louis

CURRENT METAR :
  • 280354Z AUTO 16003KT 10SM R08R/1800V3500FT CLR 19/19 A2986 RMK AO2 SLP108 T01940189 $

EXPIRED METARs :
  • 280254Z AUTO 14003KT 10SM R08R/2000V2800FT CLR 20/19 A2986 RMK AO2 SLP106 T02000189 53014 $
  • 280154Z 00000KT 10SM R08R/2000VP6000FT CLR 21/19 A2984 RMK AO2 SLP097 T02110194 $

TAF KSUS
Valid from the 28 at 01:00 until the 29 at 00:00 UTC


280112Z 2801/2824 VRB03KT P6SM SCT060
FM281000 00000KT 4SM BR VCSH SCT004 BKN100
FM281300 VRB03KT P6SM VCSH OVC060
FM282200 24006KT 6SM -SHRA VCTS BKN040CB
KZKC FIR / North America



MET'MAP, your aeronautical weather chart ! - Copyright ORBIFLY December 2007 - Disclaimer

ORBIFLY MET'MAP TEAM :

Programming & Development : Alexandra Zaïnal
Concept & original design : Baudouin d'Aumeries
Assistance for programming : Marc-Olivier Méhu
Technical & hardware support : Manuel Goepfert

Contact : metmap@orbifly.com




SOURCES & CREDITS :

   NOAA       Earth
Advisory